sensor_id;sensor_type;location;lat;lon;timestamp;P1;durP1;ratioP1;P2;durP2;ratioP2
26512;SDS011;14186;53.822;10.152;2023-07-29T00:01:21;5.95;;;3.83;;
26512;SDS011;14186;53.822;10.152;2023-07-29T00:06:21;5.47;;;3.78;;
26512;SDS011;14186;53.822;10.152;2023-07-29T00:11:22;5.15;;;3.00;;
26512;SDS011;14186;53.822;10.152;2023-07-29T00:16:23;4.95;;;3.28;;
26512;SDS011;14186;53.822;10.152;2023-07-29T00:21:23;5.25;;;3.58;;
26512;SDS011;14186;53.822;10.152;2023-07-29T00:26:24;4.38;;;3.13;;
26512;SDS011;14186;53.822;10.152;2023-07-29T00:31:26;4.78;;;3.42;;
26512;SDS011;14186;53.822;10.152;2023-07-29T00:36:26;5.57;;;3.42;;
26512;SDS011;14186;53.822;10.152;2023-07-29T00:41:26;4.88;;;3.67;;
26512;SDS011;14186;53.822;10.152;2023-07-29T00:46:28;5.45;;;3.78;;
26512;SDS011;14186;53.822;10.152;2023-07-29T00:51:28;5.85;;;3.95;;
26512;SDS011;14186;53.822;10.152;2023-07-29T00:56:28;9.13;;;5.15;;
26512;SDS011;14186;53.822;10.152;2023-07-29T01:01:30;6.82;;;4.63;;
26512;SDS011;14186;53.822;10.152;2023-07-29T01:06:34;9.93;;;6.05;;
26512;SDS011;14186;53.822;10.152;2023-07-29T01:11:41;6.45;;;4.50;;
26512;SDS011;14186;53.822;10.152;2023-07-29T01:21:43;7.78;;;4.90;;
26512;SDS011;14186;53.822;10.152;2023-07-29T01:26:45;8.38;;;5.15;;
26512;SDS011;14186;53.822;10.152;2023-07-29T01:31:45;6.18;;;4.53;;
26512;SDS011;14186;53.822;10.152;2023-07-29T01:36:49;6.57;;;4.60;;
26512;SDS011;14186;53.822;10.152;2023-07-29T01:41:52;7.18;;;4.15;;
26512;SDS011;14186;53.822;10.152;2023-07-29T01:46:53;6.40;;;4.22;;
26512;SDS011;14186;53.822;10.152;2023-07-29T01:51:54;7.97;;;4.18;;
26512;SDS011;14186;53.822;10.152;2023-07-29T01:56:57;5.88;;;4.10;;
26512;SDS011;14186;53.822;10.152;2023-07-29T02:01:57;6.13;;;3.92;;
26512;SDS011;14186;53.822;10.152;2023-07-29T02:06:57;7.43;;;4.45;;
26512;SDS011;14186;53.822;10.152;2023-07-29T02:12:01;6.00;;;4.30;;
26512;SDS011;14186;53.822;10.152;2023-07-29T02:17:02;6.83;;;4.53;;
26512;SDS011;14186;53.822;10.152;2023-07-29T02:22:02;7.27;;;4.30;;
26512;SDS011;14186;53.822;10.152;2023-07-29T02:27:04;5.68;;;4.07;;
26512;SDS011;14186;53.822;10.152;2023-07-29T02:32:04;5.43;;;4.20;;
26512;SDS011;14186;53.822;10.152;2023-07-29T02:37:05;7.63;;;4.40;;
26512;SDS011;14186;53.822;10.152;2023-07-29T02:42:07;7.55;;;5.25;;
26512;SDS011;14186;53.822;10.152;2023-07-29T02:47:07;6.78;;;4.90;;
26512;SDS011;14186;53.822;10.152;2023-07-29T02:52:07;7.07;;;5.25;;
26512;SDS011;14186;53.822;10.152;2023-07-29T02:57:09;6.85;;;4.60;;
26512;SDS011;14186;53.822;10.152;2023-07-29T03:02:10;7.22;;;4.40;;
26512;SDS011;14186;53.822;10.152;2023-07-29T03:07:10;6.38;;;4.47;;
26512;SDS011;14186;53.822;10.152;2023-07-29T03:12:12;7.50;;;4.70;;
26512;SDS011;14186;53.822;10.152;2023-07-29T03:17:12;6.85;;;5.07;;
26512;SDS011;14186;53.822;10.152;2023-07-29T03:22:12;6.75;;;4.30;;
26512;SDS011;14186;53.822;10.152;2023-07-29T03:27:14;7.95;;;5.20;;
26512;SDS011;14186;53.822;10.152;2023-07-29T03:32:15;6.55;;;4.43;;
26512;SDS011;14186;53.822;10.152;2023-07-29T03:37:15;8.13;;;4.63;;
26512;SDS011;14186;53.822;10.152;2023-07-29T03:42:17;9.18;;;4.78;;
26512;SDS011;14186;53.822;10.152;2023-07-29T03:47:17;7.45;;;4.80;;
26512;SDS011;14186;53.822;10.152;2023-07-29T03:52:17;5.70;;;4.13;;
26512;SDS011;14186;53.822;10.152;2023-07-29T03:57:19;7.97;;;5.28;;
26512;SDS011;14186;53.822;10.152;2023-07-29T04:02:19;6.35;;;4.60;;
26512;SDS011;14186;53.822;10.152;2023-07-29T04:07:19;6.40;;;4.28;;
26512;SDS011;14186;53.822;10.152;2023-07-29T04:12:21;8.00;;;5.05;;
26512;SDS011;14186;53.822;10.152;2023-07-29T04:17:21;9.02;;;4.78;;
26512;SDS011;14186;53.822;10.152;2023-07-29T04:22:22;5.60;;;4.30;;
26512;SDS011;14186;53.822;10.152;2023-07-29T04:27:24;7.05;;;5.03;;
26512;SDS011;14186;53.822;10.152;2023-07-29T04:32:24;8.75;;;4.97;;
26512;SDS011;14186;53.822;10.152;2023-07-29T04:37:24;7.78;;;5.93;;
26512;SDS011;14186;53.822;10.152;2023-07-29T04:42:26;9.15;;;6.80;;
26512;SDS011;14186;53.822;10.152;2023-07-29T04:47:26;9.98;;;6.72;;
26512;SDS011;14186;53.822;10.152;2023-07-29T04:52:27;11.68;;;6.78;;
26512;SDS011;14186;53.822;10.152;2023-07-29T04:57:28;11.43;;;8.68;;
26512;SDS011;14186;53.822;10.152;2023-07-29T05:02:29;12.93;;;9.55;;
26512;SDS011;14186;53.822;10.152;2023-07-29T05:07:29;13.60;;;10.15;;
26512;SDS011;14186;53.822;10.152;2023-07-29T05:12:31;13.20;;;10.45;;
26512;SDS011;14186;53.822;10.152;2023-07-29T05:17:31;16.80;;;12.50;;
26512;SDS011;14186;53.822;10.152;2023-07-29T05:22:31;15.65;;;12.70;;
26512;SDS011;14186;53.822;10.152;2023-07-29T05:27:33;16.88;;;12.98;;
26512;SDS011;14186;53.822;10.152;2023-07-29T05:32:33;16.92;;;12.32;;
26512;SDS011;14186;53.822;10.152;2023-07-29T05:37:33;15.10;;;12.63;;
26512;SDS011;14186;53.822;10.152;2023-07-29T05:42:35;14.68;;;12.20;;
26512;SDS011;14186;53.822;10.152;2023-07-29T05:47:35;14.90;;;11.70;;
26512;SDS011;14186;53.822;10.152;2023-07-29T05:52:36;15.57;;;13.10;;
26512;SDS011;14186;53.822;10.152;2023-07-29T05:57:38;16.42;;;12.10;;
26512;SDS011;14186;53.822;10.152;2023-07-29T06:02:38;16.50;;;11.65;;
26512;SDS011;14186;53.822;10.152;2023-07-29T06:07:38;17.25;;;11.15;;
26512;SDS011;14186;53.822;10.152;2023-07-29T06:12:40;14.95;;;10.73;;
26512;SDS011;14186;53.822;10.152;2023-07-29T06:17:40;15.98;;;11.48;;
26512;SDS011;14186;53.822;10.152;2023-07-29T06:22:41;12.52;;;9.48;;
26512;SDS011;14186;53.822;10.152;2023-07-29T06:27:43;14.83;;;11.27;;
26512;SDS011;14186;53.822;10.152;2023-07-29T06:32:43;14.10;;;9.70;;
26512;SDS011;14186;53.822;10.152;2023-07-29T06:37:44;13.27;;;9.65;;
26512;SDS011;14186;53.822;10.152;2023-07-29T06:42:45;17.50;;;10.38;;
26512;SDS011;14186;53.822;10.152;2023-07-29T06:47:46;12.75;;;9.25;;
26512;SDS011;14186;53.822;10.152;2023-07-29T06:52:46;12.70;;;9.80;;
26512;SDS011;14186;53.822;10.152;2023-07-29T06:57:47;15.88;;;11.25;;
26512;SDS011;14186;53.822;10.152;2023-07-29T07:02:48;15.25;;;11.95;;
26512;SDS011;14186;53.822;10.152;2023-07-29T07:07:48;12.25;;;9.18;;
26512;SDS011;14186;53.822;10.152;2023-07-29T07:12:50;13.18;;;9.73;;
26512;SDS011;14186;53.822;10.152;2023-07-29T07:17:50;14.65;;;11.15;;
26512;SDS011;14186;53.822;10.152;2023-07-29T07:22:51;13.27;;;10.30;;
26512;SDS011;14186;53.822;10.152;2023-07-29T07:27:52;15.82;;;10.23;;
26512;SDS011;14186;53.822;10.152;2023-07-29T07:32:53;11.93;;;9.68;;
26512;SDS011;14186;53.822;10.152;2023-07-29T07:37:53;14.02;;;8.73;;
26512;SDS011;14186;53.822;10.152;2023-07-29T07:42:54;12.60;;;8.80;;
26512;SDS011;14186;53.822;10.152;2023-07-29T07:47:55;13.35;;;9.45;;
26512;SDS011;14186;53.822;10.152;2023-07-29T07:52:56;12.73;;;9.18;;
26512;SDS011;14186;53.822;10.152;2023-07-29T07:57:57;12.82;;;8.90;;
26512;SDS011;14186;53.822;10.152;2023-07-29T08:02:57;11.85;;;8.88;;
26512;SDS011;14186;53.822;10.152;2023-07-29T08:07:58;11.50;;;8.60;;
26512;SDS011;14186;53.822;10.152;2023-07-29T08:12:59;12.13;;;8.05;;
26512;SDS011;14186;53.822;10.152;2023-07-29T08:18:00;12.70;;;8.00;;
26512;SDS011;14186;53.822;10.152;2023-07-29T08:23:00;10.52;;;8.18;;
26512;SDS011;14186;53.822;10.152;2023-07-29T08:28:02;13.52;;;9.18;;
26512;SDS011;14186;53.822;10.152;2023-07-29T08:33:02;14.00;;;9.98;;
26512;SDS011;14186;53.822;10.152;2023-07-29T08:38:02;12.85;;;9.50;;
26512;SDS011;14186;53.822;10.152;2023-07-29T08:43:04;14.00;;;11.27;;
26512;SDS011;14186;53.822;10.152;2023-07-29T08:48:07;14.00;;;9.98;;
26512;SDS011;14186;53.822;10.152;2023-07-29T08:53:08;14.25;;;11.20;;
26512;SDS011;14186;53.822;10.152;2023-07-29T08:58:10;11.43;;;9.65;;
26512;SDS011;14186;53.822;10.152;2023-07-29T09:03:10;13.40;;;10.38;;
26512;SDS011;14186;53.822;10.152;2023-07-29T09:08:10;12.10;;;10.10;;
26512;SDS011;14186;53.822;10.152;2023-07-29T09:13:12;12.18;;;9.70;;
26512;SDS011;14186;53.822;10.152;2023-07-29T09:18:14;13.18;;;10.40;;
26512;SDS011;14186;53.822;10.152;2023-07-29T09:23:15;13.75;;;11.50;;
26512;SDS011;14186;53.822;10.152;2023-07-29T09:28:17;13.45;;;10.90;;
26512;SDS011;14186;53.822;10.152;2023-07-29T09:33:17;15.63;;;12.07;;
26512;SDS011;14186;53.822;10.152;2023-07-29T09:38:18;14.23;;;11.23;;
26512;SDS011;14186;53.822;10.152;2023-07-29T09:43:24;15.27;;;11.45;;
26512;SDS011;14186;53.822;10.152;2023-07-29T09:48:25;14.07;;;11.65;;
26512;SDS011;14186;53.822;10.152;2023-07-29T09:53:25;14.55;;;11.98;;
26512;SDS011;14186;53.822;10.152;2023-07-29T09:58:27;15.18;;;11.60;;
26512;SDS011;14186;53.822;10.152;2023-07-29T10:03:27;13.73;;;10.48;;
26512;SDS011;14186;53.822;10.152;2023-07-29T10:08:29;12.13;;;9.45;;
26512;SDS011;14186;53.822;10.152;2023-07-29T10:13:31;11.75;;;8.45;;
26512;SDS011;14186;53.822;10.152;2023-07-29T10:18:32;10.98;;;7.00;;
26512;SDS011;14186;53.822;10.152;2023-07-29T10:23:34;12.25;;;8.57;;
26512;SDS011;14186;53.822;10.152;2023-07-29T10:28:39;10.05;;;7.38;;
26512;SDS011;14186;53.822;10.152;2023-07-29T10:33:40;9.00;;;5.68;;
26512;SDS011;14186;53.822;10.152;2023-07-29T10:38:40;7.72;;;5.55;;
26512;SDS011;14186;53.822;10.152;2023-07-29T10:43:42;7.40;;;5.53;;
26512;SDS011;14186;53.822;10.152;2023-07-29T10:48:43;7.10;;;4.85;;
26512;SDS011;14186;53.822;10.152;2023-07-29T10:53:43;5.57;;;3.90;;
26512;SDS011;14186;53.822;10.152;2023-07-29T10:58:45;5.15;;;3.05;;
26512;SDS011;14186;53.822;10.152;2023-07-29T11:03:59;4.22;;;3.17;;
26512;SDS011;14186;53.822;10.152;2023-07-29T11:09:00;5.00;;;3.25;;
26512;SDS011;14186;53.822;10.152;2023-07-29T11:14:02;4.35;;;3.25;;
26512;SDS011;14186;53.822;10.152;2023-07-29T11:19:02;3.53;;;2.88;;
26512;SDS011;14186;53.822;10.152;2023-07-29T11:24:02;3.97;;;2.80;;
26512;SDS011;14186;53.822;10.152;2023-07-29T11:29:04;3.33;;;2.47;;
26512;SDS011;14186;53.822;10.152;2023-07-29T11:34:06;3.35;;;1.98;;
26512;SDS011;14186;53.822;10.152;2023-07-29T11:39:09;2.50;;;1.80;;
26512;SDS011;14186;53.822;10.152;2023-07-29T11:44:16;3.00;;;1.80;;
26512;SDS011;14186;53.822;10.152;2023-07-29T11:49:16;2.05;;;1.48;;
26512;SDS011;14186;53.822;10.152;2023-07-29T11:54:16;2.55;;;1.73;;
26512;SDS011;14186;53.822;10.152;2023-07-29T11:59:19;3.45;;;1.77;;
26512;SDS011;14186;53.822;10.152;2023-07-29T12:04:19;3.78;;;1.73;;
26512;SDS011;14186;53.822;10.152;2023-07-29T12:09:21;3.15;;;1.60;;
26512;SDS011;14186;53.822;10.152;2023-07-29T12:14:25;3.20;;;2.00;;
26512;SDS011;14186;53.822;10.152;2023-07-29T12:19:30;3.72;;;2.00;;
26512;SDS011;14186;53.822;10.152;2023-07-29T12:24:31;4.32;;;2.63;;
26512;SDS011;14186;53.822;10.152;2023-07-29T12:29:39;5.07;;;2.28;;
26512;SDS011;14186;53.822;10.152;2023-07-29T12:34:39;4.05;;;2.78;;
26512;SDS011;14186;53.822;10.152;2023-07-29T12:39:40;5.20;;;3.33;;
26512;SDS011;14186;53.822;10.152;2023-07-29T12:44:41;4.50;;;2.88;;
26512;SDS011;14186;53.822;10.152;2023-07-29T12:49:42;3.53;;;2.50;;
26512;SDS011;14186;53.822;10.152;2023-07-29T12:54:42;4.28;;;2.10;;
26512;SDS011;14186;53.822;10.152;2023-07-29T12:59:44;3.30;;;1.88;;
26512;SDS011;14186;53.822;10.152;2023-07-29T13:04:44;5.75;;;2.05;;
26512;SDS011;14186;53.822;10.152;2023-07-29T13:09:45;4.40;;;1.20;;
26512;SDS011;14186;53.822;10.152;2023-07-29T13:14:46;3.72;;;1.40;;
26512;SDS011;14186;53.822;10.152;2023-07-29T13:19:46;1.63;;;0.98;;
26512;SDS011;14186;53.822;10.152;2023-07-29T13:24:47;1.55;;;0.88;;
26512;SDS011;14186;53.822;10.152;2023-07-29T13:29:49;1.43;;;0.90;;
26512;SDS011;14186;53.822;10.152;2023-07-29T13:34:49;2.65;;;1.08;;
26512;SDS011;14186;53.822;10.152;2023-07-29T13:39:49;3.75;;;1.52;;
26512;SDS011;14186;53.822;10.152;2023-07-29T13:44:51;3.00;;;1.20;;
26512;SDS011;14186;53.822;10.152;2023-07-29T13:49:51;2.40;;;1.00;;
26512;SDS011;14186;53.822;10.152;2023-07-29T13:54:51;2.63;;;1.55;;
26512;SDS011;14186;53.822;10.152;2023-07-29T13:59:53;2.93;;;1.50;;
26512;SDS011;14186;53.822;10.152;2023-07-29T14:04:53;1.95;;;1.20;;
26512;SDS011;14186;53.822;10.152;2023-07-29T14:09:53;3.47;;;1.45;;
26512;SDS011;14186;53.822;10.152;2023-07-29T14:14:55;2.42;;;1.30;;
26512;SDS011;14186;53.822;10.152;2023-07-29T14:19:55;2.58;;;1.08;;
26512;SDS011;14186;53.822;10.152;2023-07-29T14:24:56;2.42;;;1.27;;
26512;SDS011;14186;53.822;10.152;2023-07-29T14:29:57;2.40;;;1.27;;
26512;SDS011;14186;53.822;10.152;2023-07-29T14:34:57;2.33;;;1.13;;
26512;SDS011;14186;53.822;10.152;2023-07-29T14:39:58;5.00;;;1.20;;
26512;SDS011;14186;53.822;10.152;2023-07-29T14:45:00;3.03;;;1.17;;
26512;SDS011;14186;53.822;10.152;2023-07-29T14:50:00;4.13;;;1.60;;
26512;SDS011;14186;53.822;10.152;2023-07-29T14:55:00;2.15;;;1.15;;
26512;SDS011;14186;53.822;10.152;2023-07-29T15:00:03;4.18;;;1.42;;
26512;SDS011;14186;53.822;10.152;2023-07-29T15:05:04;4.78;;;1.42;;
26512;SDS011;14186;53.822;10.152;2023-07-29T15:10:04;5.97;;;1.33;;
26512;SDS011;14186;53.822;10.152;2023-07-29T15:15:07;3.65;;;1.10;;
26512;SDS011;14186;53.822;10.152;2023-07-29T15:20:08;2.70;;;1.10;;
26512;SDS011;14186;53.822;10.152;2023-07-29T15:25:09;4.22;;;1.38;;
26512;SDS011;14186;53.822;10.152;2023-07-29T15:30:11;6.45;;;2.22;;
26512;SDS011;14186;53.822;10.152;2023-07-29T15:35:12;2.53;;;1.33;;
26512;SDS011;14186;53.822;10.152;2023-07-29T15:40:12;1.95;;;0.95;;
26512;SDS011;14186;53.822;10.152;2023-07-29T15:45:14;4.00;;;1.30;;
26512;SDS011;14186;53.822;10.152;2023-07-29T15:50:14;3.45;;;1.58;;
26512;SDS011;14186;53.822;10.152;2023-07-29T15:55:14;3.87;;;1.33;;
26512;SDS011;14186;53.822;10.152;2023-07-29T16:00:16;1.55;;;1.10;;
26512;SDS011;14186;53.822;10.152;2023-07-29T16:05:16;2.72;;;1.27;;
26512;SDS011;14186;53.822;10.152;2023-07-29T16:10:16;2.90;;;1.40;;
26512;SDS011;14186;53.822;10.152;2023-07-29T16:15:18;3.55;;;1.65;;
26512;SDS011;14186;53.822;10.152;2023-07-29T16:20:18;3.95;;;1.88;;
26512;SDS011;14186;53.822;10.152;2023-07-29T16:25:18;3.67;;;1.60;;
26512;SDS011;14186;53.822;10.152;2023-07-29T16:30:20;3.40;;;1.60;;
26512;SDS011;14186;53.822;10.152;2023-07-29T16:35:20;3.15;;;1.70;;
26512;SDS011;14186;53.822;10.152;2023-07-29T16:40:21;4.38;;;1.60;;
26512;SDS011;14186;53.822;10.152;2023-07-29T16:45:23;3.10;;;1.83;;
26512;SDS011;14186;53.822;10.152;2023-07-29T16:50:23;4.43;;;2.10;;
26512;SDS011;14186;53.822;10.152;2023-07-29T16:55:23;5.97;;;2.35;;
26512;SDS011;14186;53.822;10.152;2023-07-29T17:00:25;3.35;;;1.90;;
26512;SDS011;14186;53.822;10.152;2023-07-29T17:05:25;4.60;;;1.98;;
26512;SDS011;14186;53.822;10.152;2023-07-29T17:10:26;3.70;;;2.27;;
26512;SDS011;14186;53.822;10.152;2023-07-29T17:15:27;3.33;;;2.05;;
26512;SDS011;14186;53.822;10.152;2023-07-29T17:20:28;7.15;;;3.17;;
26512;SDS011;14186;53.822;10.152;2023-07-29T17:25:29;3.42;;;2.00;;
26512;SDS011;14186;53.822;10.152;2023-07-29T17:30:31;2.67;;;1.60;;
26512;SDS011;14186;53.822;10.152;2023-07-29T17:35:31;4.65;;;1.52;;
26512;SDS011;14186;53.822;10.152;2023-07-29T17:40:31;3.67;;;1.50;;
26512;SDS011;14186;53.822;10.152;2023-07-29T17:45:33;3.70;;;1.58;;
26512;SDS011;14186;53.822;10.152;2023-07-29T17:50:33;6.80;;;2.03;;
26512;SDS011;14186;53.822;10.152;2023-07-29T17:55:35;2.88;;;1.40;;
26512;SDS011;14186;53.822;10.152;2023-07-29T18:00:37;4.97;;;2.00;;
26512;SDS011;14186;53.822;10.152;2023-07-29T18:05:37;4.25;;;1.83;;
26512;SDS011;14186;53.822;10.152;2023-07-29T18:10:39;7.20;;;2.03;;
26512;SDS011;14186;53.822;10.152;2023-07-29T18:15:42;3.90;;;1.70;;
26512;SDS011;14186;53.822;10.152;2023-07-29T18:20:42;3.97;;;1.80;;
26512;SDS011;14186;53.822;10.152;2023-07-29T18:25:43;3.90;;;1.70;;
26512;SDS011;14186;53.822;10.152;2023-07-29T18:30:51;5.22;;;1.80;;
26512;SDS011;14186;53.822;10.152;2023-07-29T18:35:52;5.05;;;1.98;;
26512;SDS011;14186;53.822;10.152;2023-07-29T18:40:52;5.60;;;1.52;;
26512;SDS011;14186;53.822;10.152;2023-07-29T18:45:54;8.18;;;2.40;;
26512;SDS011;14186;53.822;10.152;2023-07-29T18:50:54;5.10;;;2.55;;
26512;SDS011;14186;53.822;10.152;2023-07-29T18:55:55;3.70;;;1.63;;
26512;SDS011;14186;53.822;10.152;2023-07-29T19:00:57;5.03;;;1.83;;
26512;SDS011;14186;53.822;10.152;2023-07-29T19:05:57;4.18;;;1.80;;
26512;SDS011;14186;53.822;10.152;2023-07-29T19:10:57;8.07;;;1.95;;
26512;SDS011;14186;53.822;10.152;2023-07-29T19:15:59;3.67;;;1.77;;
26512;SDS011;14186;53.822;10.152;2023-07-29T19:20:59;5.82;;;1.90;;
26512;SDS011;14186;53.822;10.152;2023-07-29T19:26:00;4.35;;;1.50;;
26512;SDS011;14186;53.822;10.152;2023-07-29T19:31:02;8.32;;;1.67;;
26512;SDS011;14186;53.822;10.152;2023-07-29T19:36:03;4.70;;;1.55;;
26512;SDS011;14186;53.822;10.152;2023-07-29T19:41:03;6.13;;;1.85;;
26512;SDS011;14186;53.822;10.152;2023-07-29T19:46:05;5.68;;;1.98;;
26512;SDS011;14186;53.822;10.152;2023-07-29T19:51:06;7.35;;;2.20;;
26512;SDS011;14186;53.822;10.152;2023-07-29T19:56:06;4.22;;;1.85;;
26512;SDS011;14186;53.822;10.152;2023-07-29T20:01:08;5.28;;;2.05;;
26512;SDS011;14186;53.822;10.152;2023-07-29T20:06:08;10.02;;;3.20;;
26512;SDS011;14186;53.822;10.152;2023-07-29T20:11:09;9.47;;;2.60;;
26512;SDS011;14186;53.822;10.152;2023-07-29T20:16:10;10.43;;;2.55;;
26512;SDS011;14186;53.822;10.152;2023-07-29T20:21:11;5.68;;;2.25;;
26512;SDS011;14186;53.822;10.152;2023-07-29T20:26:11;8.45;;;2.97;;
26512;SDS011;14186;53.822;10.152;2023-07-29T20:31:13;7.70;;;3.20;;
26512;SDS011;14186;53.822;10.152;2023-07-29T20:36:13;6.65;;;2.85;;
26512;SDS011;14186;53.822;10.152;2023-07-29T20:41:13;11.75;;;3.47;;
26512;SDS011;14186;53.822;10.152;2023-07-29T20:46:19;6.88;;;3.47;;
26512;SDS011;14186;53.822;10.152;2023-07-29T20:51:19;8.88;;;4.00;;
26512;SDS011;14186;53.822;10.152;2023-07-29T20:56:19;7.22;;;3.17;;
26512;SDS011;14186;53.822;10.152;2023-07-29T21:01:22;8.20;;;4.00;;
26512;SDS011;14186;53.822;10.152;2023-07-29T21:06:22;11.35;;;4.55;;
26512;SDS011;14186;53.822;10.152;2023-07-29T21:11:22;11.18;;;5.15;;
26512;SDS011;14186;53.822;10.152;2023-07-29T21:16:24;14.60;;;6.47;;
26512;SDS011;14186;53.822;10.152;2023-07-29T21:21:24;13.82;;;6.75;;
26512;SDS011;14186;53.822;10.152;2023-07-29T21:26:25;22.15;;;7.20;;
26512;SDS011;14186;53.822;10.152;2023-07-29T21:31:26;19.48;;;7.13;;
26512;SDS011;14186;53.822;10.152;2023-07-29T21:36:26;20.17;;;8.02;;
26512;SDS011;14186;53.822;10.152;2023-07-29T21:41:27;22.77;;;7.88;;
26512;SDS011;14186;53.822;10.152;2023-07-29T21:46:31;14.65;;;6.97;;
26512;SDS011;14186;53.822;10.152;2023-07-29T21:51:31;29.88;;;8.13;;
26512;SDS011;14186;53.822;10.152;2023-07-29T21:56:32;13.85;;;6.93;;
26512;SDS011;14186;53.822;10.152;2023-07-29T22:01:34;18.85;;;7.88;;
26512;SDS011;14186;53.822;10.152;2023-07-29T22:06:34;18.35;;;8.18;;
26512;SDS011;14186;53.822;10.152;2023-07-29T22:11:34;29.15;;;8.32;;
26512;SDS011;14186;53.822;10.152;2023-07-29T22:16:36;19.75;;;8.80;;
26512;SDS011;14186;53.822;10.152;2023-07-29T22:21:36;33.50;;;9.15;;
26512;SDS011;14186;53.822;10.152;2023-07-29T22:26:36;39.50;;;9.10;;
26512;SDS011;14186;53.822;10.152;2023-07-29T22:31:38;29.30;;;8.50;;
26512;SDS011;14186;53.822;10.152;2023-07-29T22:36:38;28.10;;;7.45;;
26512;SDS011;14186;53.822;10.152;2023-07-29T22:41:39;10.20;;;5.50;;
26512;SDS011;14186;53.822;10.152;2023-07-29T22:46:41;20.50;;;7.10;;
26512;SDS011;14186;53.822;10.152;2023-07-29T22:51:41;31.48;;;8.13;;
26512;SDS011;14186;53.822;10.152;2023-07-29T22:56:41;23.88;;;7.57;;
26512;SDS011;14186;53.822;10.152;2023-07-29T23:01:43;23.08;;;8.07;;
26512;SDS011;14186;53.822;10.152;2023-07-29T23:06:44;19.58;;;8.65;;
26512;SDS011;14186;53.822;10.152;2023-07-29T23:11:44;22.90;;;10.18;;
26512;SDS011;14186;53.822;10.152;2023-07-29T23:16:46;18.25;;;9.07;;
26512;SDS011;14186;53.822;10.152;2023-07-29T23:21:46;47.60;;;11.07;;
26512;SDS011;14186;53.822;10.152;2023-07-29T23:26:46;52.20;;;11.85;;
26512;SDS011;14186;53.822;10.152;2023-07-29T23:31:48;34.20;;;9.30;;
26512;SDS011;14186;53.822;10.152;2023-07-29T23:36:48;28.35;;;9.25;;
26512;SDS011;14186;53.822;10.152;2023-07-29T23:41:49;16.50;;;8.90;;
26512;SDS011;14186;53.822;10.152;2023-07-29T23:46:50;26.43;;;9.03;;
26512;SDS011;14186;53.822;10.152;2023-07-29T23:51:51;14.15;;;7.88;;
26512;SDS011;14186;53.822;10.152;2023-07-29T23:56:51;19.83;;;8.25;;
